Time;durP1;ratioP1;P1;durP2;ratioP2;P2;SDS_P1;SDS_P2;PMS_P1;PMS_P2;Temp;Humidity;BMP_temperature;BMP_pressure;BME280_temperature;BME280_humidity;BME280_pressure;Samples;Min_cycle;Max_cycle;Signal;HPM_P1;HPM_P2
2022/06/03 00:02:42;;;;;;;6.80;5.07;;;;;;;;;;7399606;19;20482;-41
2022/06/03 00:05:26;;;;;;;7.18;5.35;;;;;;;;;;7398009;19;20483;-43
2022/06/03 00:08:05;;;;;;;5.93;5.07;;;;;;;;;;7401303;19;20017;-40
2022/06/03 00:10:40;;;;;;;7.70;5.72;;;;;;;;;;7401877;19;20070;-43
2022/06/03 00:13:15;;;;;;;9.20;5.60;;;;;;;;;;7398414;19;20018;-43
2022/06/03 00:15:59;;;;;;;6.28;5.30;;;;;;;;;;7396226;19;20020;-45
2022/06/03 00:18:48;;;;;;;7.30;5.60;;;;;;;;;;7398440;19;20017;-42
2022/06/03 00:21:22;;;;;;;5.82;5.15;;;;;;;;;;7401021;19;20521;-43
2022/06/03 00:23:58;;;;;;;5.88;5.10;;;;;;;;;;7397183;19;20624;-43
2022/06/03 00:26:32;;;;;;;6.15;4.70;;;;;;;;;;7397646;19;20021;-45
2022/06/03 00:29:12;;;;;;;6.88;5.05;;;;;;;;;;7397288;19;20354;-45
2022/06/03 00:32:01;;;;;;;6.75;5.15;;;;;;;;;;7402668;19;20663;-42
2022/06/03 00:34:35;;;;;;;6.72;5.00;;;;;;;;;;7396290;19;20431;-46
2022/06/03 00:37:13;;;;;;;6.68;5.30;;;;;;;;;;7397292;19;20034;-45
2022/06/03 00:39:54;;;;;;;11.05;5.80;;;;;;;;;;7397460;19;20014;-45
2022/06/03 00:42:37;;;;;;;8.88;5.80;;;;;;;;;;7397628;19;20057;-45
2022/06/03 00:45:22;;;;;;;10.98;6.13;;;;;;;;;;7400113;19;20029;-45
2022/06/03 00:48:03;;;;;;;7.00;5.60;;;;;;;;;;7397600;19;20086;-44
2022/06/03 00:51:01;;;;;;;6.70;6.00;;;;;;;;;;7398402;19;20015;-46
2022/06/03 00:53:39;;;;;;;6.55;5.82;;;;;;;;;;7393542;19;20809;-44
2022/06/03 00:56:35;;;;;;;10.80;6.80;;;;;;;;;;7394384;19;20018;-44
2022/06/03 00:59:15;;;;;;;9.15;6.32;;;;;;;;;;7397853;19;20368;-44
2022/06/03 01:01:51;;;;;;;6.90;5.55;;;;;;;;;;7401212;19;20098;-45
2022/06/03 01:04:25;;;;;;;7.50;5.90;;;;;;;;;;7395254;19;20074;-44
2022/06/03 01:07:00;;;;;;;8.65;6.10;;;;;;;;;;7397485;19;20018;-43
2022/06/03 01:09:35;;;;;;;8.63;5.65;;;;;;;;;;7398242;19;20026;-44
2022/06/03 01:12:16;;;;;;;6.30;5.18;;;;;;;;;;7397789;19;20308;-42
2022/06/03 01:14:53;;;;;;;8.70;5.50;;;;;;;;;;7393302;19;20394;-46
2022/06/03 01:17:28;;;;;;;7.05;5.70;;;;;;;;;;7398592;19;20086;-48
2022/06/03 01:20:02;;;;;;;6.72;5.70;;;;;;;;;;7395178;19;20015;-47
2022/06/03 01:22:41;;;;;;;6.88;5.60;;;;;;;;;;7395052;19;20018;-48
2022/06/03 01:25:31;;;;;;;6.75;5.43;;;;;;;;;;7394823;19;20358;-49
2022/06/03 01:28:17;;;;;;;8.65;5.53;;;;;;;;;;7394942;19;20014;-47
2022/06/03 01:30:51;;;;;;;7.47;5.38;;;;;;;;;;7394535;19;20010;-48
2022/06/03 01:33:34;;;;;;;6.95;5.20;;;;;;;;;;7395445;19;20082;-47
2022/06/03 01:36:20;;;;;;;5.95;5.35;;;;;;;;;;7391994;19;20014;-51
2022/06/03 01:38:57;;;;;;;6.47;5.50;;;;;;;;;;7394399;19;20010;-49
2022/06/03 01:41:35;;;;;;;5.95;4.95;;;;;;;;;;7394052;19;20085;-45
2022/06/03 01:44:19;;;;;;;7.15;5.82;;;;;;;;;;7393429;19;20022;-46
2022/06/03 01:47:05;;;;;;;6.57;5.30;;;;;;;;;;7392924;19;20090;-43
2022/06/03 01:49:51;;;;;;;7.78;5.38;;;;;;;;;;7395370;19;20014;-45
2022/06/03 01:52:35;;;;;;;8.43;5.53;;;;;;;;;;7393706;19;20011;-43
2022/06/03 01:55:30;;;;;;;8.05;5.47;;;;;;;;;;7392575;19;20367;-45
2022/06/03 01:58:05;;;;;;;7.25;5.32;;;;;;;;;;7392687;19;20014;-46
2022/06/03 02:00:35;;;;;;;6.70;5.40;;;;;;;;;;7394573;19;20034;-50
2022/06/03 02:03:18;;;;;;;6.75;5.10;;;;;;;;;;7393526;19;20030;-46
2022/06/03 02:06:02;;;;;;;6.88;5.40;;;;;;;;;;7393351;19;20086;-49
2022/06/03 02:08:46;;;;;;;7.60;5.60;;;;;;;;;;7393917;19;20040;-46
2022/06/03 02:11:29;;;;;;;9.25;5.55;;;;;;;;;;7393357;19;20014;-47
2022/06/03 02:14:12;;;;;;;6.32;5.65;;;;;;;;;;7395194;19;20021;-44
2022/06/03 02:17:07;;;;;;;7.07;5.63;;;;;;;;;;7390406;19;20023;-49
2022/06/03 02:20:00;;;;;;;7.40;5.82;;;;;;;;;;7392973;19;20015;-48
2022/06/03 02:22:49;;;;;;;9.18;5.57;;;;;;;;;;7391302;19;20018;-46
2022/06/03 02:25:35;;;;;;;8.95;6.03;;;;;;;;;;7391546;19;20345;-45
2022/06/03 02:28:13;;;;;;;6.80;5.45;;;;;;;;;;7391622;19;20010;-49
2022/06/03 02:30:53;;;;;;;6.28;5.10;;;;;;;;;;7392554;19;20218;-46
2022/06/03 02:33:37;;;;;;;7.65;5.70;;;;;;;;;;7391145;19;20017;-47
2022/06/03 02:36:20;;;;;;;6.80;5.60;;;;;;;;;;7390089;19;20010;-49
2022/06/03 02:38:54;;;;;;;7.20;5.57;;;;;;;;;;7391502;19;20372;-47
2022/06/03 02:41:43;;;;;;;7.55;5.53;;;;;;;;;;7391592;19;20115;-46
2022/06/03 02:44:36;;;;;;;6.25;5.43;;;;;;;;;;7390571;19;20015;-47
2022/06/03 02:47:05;;;;;;;;;;;;;;;;;;7392639;19;20155;-48
2022/06/03 02:49:54;;;;;;;8.43;5.78;;;;;;;;;;7391140;19;19974;-47
2022/06/03 02:52:35;;;;;;;6.32;5.28;;;;;;;;;;7390041;19;20533;-44
2022/06/03 02:55:17;;;;;;;6.90;5.75;;;;;;;;;;7389697;19;20015;-48
2022/06/03 02:57:56;;;;;;;8.52;6.50;;;;;;;;;;7390773;19;20026;-44
2022/06/03 03:00:36;;;;;;;8.15;5.80;;;;;;;;;;7391213;19;20022;-46
2022/06/03 03:03:11;;;;;;;6.53;5.63;;;;;;;;;;7391658;19;20082;-48
2022/06/03 03:05:52;;;;;;;6.05;5.45;;;;;;;;;;7391807;19;20078;-50
2022/06/03 03:08:38;;;;;;;7.43;5.57;;;;;;;;;;7390862;19;20019;-47
2022/06/03 03:11:20;;;;;;;6.63;5.55;;;;;;;;;;7388699;19;20730;-51
2022/06/03 03:14:03;;;;;;;6.97;5.80;;;;;;;;;;7390042;19;20019;-47
2022/06/03 03:16:42;;;;;;;7.32;6.00;;;;;;;;;;7388898;19;20018;-47
2022/06/03 03:19:25;;;;;;;5.97;5.35;;;;;;;;;;7390825;19;20018;-44
2022/06/03 03:22:11;;;;;;;7.97;5.40;;;;;;;;;;7390786;19;20019;-46
2022/06/03 03:24:59;;;;;;;5.90;5.20;;;;;;;;;;7388891;19;20025;-46
2022/06/03 03:27:42;;;;;;;7.38;5.25;;;;;;;;;;7397412;19;20015;-44
2022/06/03 03:30:10;;;;;;;;;;;;;;;;;;7398478;19;20476;-45
2022/06/03 03:32:46;;;;;;;6.25;5.30;;;;;;;;;;7397557;19;19929;-46
2022/06/03 03:35:23;;;;;;;8.07;5.50;;;;;;;;;;7397097;19;20014;-48
2022/06/03 03:38:06;;;;;;;6.05;5.30;;;;;;;;;;7403171;19;20344;-47
2022/06/03 03:40:49;;;;;;;8.07;5.45;;;;;;;;;;7397420;19;20011;-50
2022/06/03 03:43:30;;;;;;;6.28;5.28;;;;;;;;;;7395645;19;20017;-44
2022/06/03 03:46:21;;;;;;;8.07;5.40;;;;;;;;;;7396617;19;20803;-44
2022/06/03 03:49:10;;;;;;;7.05;5.55;;;;;;;;;;7397500;19;20028;-46
2022/06/03 03:51:53;;;;;;;7.05;5.63;;;;;;;;;;7397761;19;20015;-46
2022/06/03 03:54:41;;;;;;;6.40;5.63;;;;;;;;;;7394534;19;20015;-47
2022/06/03 03:57:25;;;;;;;7.25;5.97;;;;;;;;;;7393901;19;20021;-46
2022/06/03 04:00:04;;;;;;;7.75;5.47;;;;;;;;;;7395812;19;20011;-47
2022/06/03 04:02:51;;;;;;;6.72;5.35;;;;;;;;;;7397203;19;20014;-46
2022/06/03 04:05:30;;;;;;;7.22;5.70;;;;;;;;;;7397720;19;20015;-46
2022/06/03 04:08:20;;;;;;;8.38;5.60;;;;;;;;;;7396194;19;20027;-48
2022/06/03 04:11:03;;;;;;;8.68;5.85;;;;;;;;;;7397816;19;20480;-46
2022/06/03 04:13:47;;;;;;;6.28;5.68;;;;;;;;;;7397207;19;20025;-47
2022/06/03 04:16:33;;;;;;;8.43;6.40;;;;;;;;;;7395904;19;20021;-46
2022/06/03 04:19:12;;;;;;;8.13;6.13;;;;;;;;;;7395539;19;20352;-48
2022/06/03 04:22:05;;;;;;;7.88;6.00;;;;;;;;;;7397491;19;20019;-50
2022/06/03 04:24:51;;;;;;;9.00;6.20;;;;;;;;;;7395789;19;20379;-45
2022/06/03 04:27:35;;;;;;;7.30;6.50;;;;;;;;;;7397075;19;20090;-44
2022/06/03 04:30:09;;;;;;;7.72;6.43;;;;;;;;;;7397551;19;20529;-49
2022/06/03 04:32:51;;;;;;;8.07;5.88;;;;;;;;;;7397276;19;20490;-46
2022/06/03 04:35:37;;;;;;;9.30;6.75;;;;;;;;;;7397901;19;20015;-44
2022/06/03 04:38:31;;;;;;;7.25;6.50;;;;;;;;;;7399140;19;20018;-44
2022/06/03 04:41:14;;;;;;;8.30;6.57;;;;;;;;;;7399876;19;20022;-42
2022/06/03 04:43:58;;;;;;;8.05;6.57;;;;;;;;;;7397110;19;20010;-43
2022/06/03 04:46:50;;;;;;;8.38;6.75;;;;;;;;;;7398373;19;20036;-45
2022/06/03 04:49:33;;;;;;;9.85;6.45;;;;;;;;;;7399203;19;20464;-43
2022/06/03 04:52:21;;;;;;;8.82;6.82;;;;;;;;;;7398309;19;20017;-44
2022/06/03 04:55:14;;;;;;;9.65;6.30;;;;;;;;;;7395839;19;20628;-45
2022/06/03 04:57:53;;;;;;;8.20;6.60;;;;;;;;;;7394243;19;20017;-44
2022/06/03 05:00:24;;;;;;;8.38;6.20;;;;;;;;;;7399133;19;20020;-45
2022/06/03 05:03:08;;;;;;;8.73;6.45;;;;;;;;;;7397589;19;20419;-44
2022/06/03 05:05:51;;;;;;;8.88;7.03;;;;;;;;;;7396034;19;20010;-48
2022/06/03 05:08:40;;;;;;;8.13;6.43;;;;;;;;;;7398135;19;20019;-44
2022/06/03 05:11:36;;;;;;;7.38;6.50;;;;;;;;;;7396625;19;20039;-45
2022/06/03 05:14:35;;;;;;;10.68;7.25;;;;;;;;;;7399447;19;20011;-44
2022/06/03 05:17:30;;;;;;;8.68;6.65;;;;;;;;;;7394695;19;20031;-44
2022/06/03 05:20:14;;;;;;;8.80;6.80;;;;;;;;;;7397259;19;20018;-44
2022/06/03 05:22:57;;;;;;;9.07;7.05;;;;;;;;;;7396461;19;20003;-44
2022/06/03 05:25:35;;;;;;;9.23;6.22;;;;;;;;;;7395160;19;20010;-45
2022/06/03 05:28:19;;;;;;;9.10;7.05;;;;;;;;;;7397216;19;20011;-44
2022/06/03 05:31:08;;;;;;;8.85;6.97;;;;;;;;;;7400959;19;20022;-44
2022/06/03 05:33:51;;;;;;;7.88;6.75;;;;;;;;;;7392351;19;20014;-57
2022/06/03 05:36:28;;;;;;;12.65;7.30;;;;;;;;;;7394029;19;20432;-47
2022/06/03 05:39:23;;;;;;;9.23;7.35;;;;;;;;;;7394085;19;20078;-51
2022/06/03 05:44:55;;;;;;;10.35;6.93;;;;;;;;;;7392670;19;20010;-45
2022/06/03 05:47:27;;;;;;;9.10;7.13;;;;;;;;;;7398113;19;20349;-49
2022/06/03 05:49:59;;;;;;;11.18;7.07;;;;;;;;;;7392778;19;20014;-46
2022/06/03 05:52:34;;;;;;;8.75;7.32;;;;;;;;;;7394102;19;20022;-48
2022/06/03 05:55:10;;;;;;;7.75;6.75;;;;;;;;;;7393222;19;20023;-50
2022/06/03 05:57:46;;;;;;;8.23;7.13;;;;;;;;;;7392424;19;20026;-46
2022/06/03 06:00:26;;;;;;;9.30;7.28;;;;;;;;;;7393385;19;20052;-47
2022/06/03 06:03:00;;;;;;;9.88;7.65;;;;;;;;;;7396457;19;21838;-48
2022/06/03 06:05:34;;;;;;;8.13;7.10;;;;;;;;;;7392924;19;20491;-47
2022/06/03 06:08:10;;;;;;;8.68;7.00;;;;;;;;;;7393898;19;20335;-48
2022/06/03 06:10:44;;;;;;;9.23;7.07;;;;;;;;;;7393642;19;20011;-46
2022/06/03 06:13:23;;;;;;;8.32;7.28;;;;;;;;;;7393351;19;20018;-48
2022/06/03 06:16:01;;;;;;;8.57;7.47;;;;;;;;;;7392933;19;20351;-51
2022/06/03 06:18:36;;;;;;;8.68;6.55;;;;;;;;;;7394971;19;20010;-47
2022/06/03 06:21:12;;;;;;;14.15;7.20;;;;;;;;;;7394705;19;20421;-50
2022/06/03 06:23:43;;;;;;;10.35;7.15;;;;;;;;;;7393257;19;20022;-45
2022/06/03 06:26:41;;;;;;;10.25;7.40;;;;;;;;;;7393315;19;20015;-49
2022/06/03 06:29:21;;;;;;;11.90;7.90;;;;;;;;;;7393928;19;20364;-48
2022/06/03 06:32:12;;;;;;;11.05;7.50;;;;;;;;;;7393307;19;20018;-48
2022/06/03 06:34:48;;;;;;;9.40;6.80;;;;;;;;;;7393558;19;20030;-47
2022/06/03 06:37:28;;;;;;;8.10;7.00;;;;;;;;;;7391890;19;20021;-49
2022/06/03 06:40:04;;;;;;;9.27;7.00;;;;;;;;;;7391815;19;20015;-51
2022/06/03 06:42:42;;;;;;;8.05;6.90;;;;;;;;;;7393696;19;20057;-51
2022/06/03 06:45:21;;;;;;;7.88;7.15;;;;;;;;;;7392597;19;20041;-48
2022/06/03 06:47:53;;;;;;;9.90;6.80;;;;;;;;;;7393259;19;20011;-51
2022/06/03 06:50:23;;;;;;;8.55;7.00;;;;;;;;;;7393224;19;20757;-46
2022/06/03 06:53:02;;;;;;;9.05;6.93;;;;;;;;;;7393119;19;20490;-48
2022/06/03 06:55:36;;;;;;;8.77;7.00;;;;;;;;;;7392638;19;20018;-52
2022/06/03 06:58:06;;;;;;;8.63;6.38;;;;;;;;;;7391095;19;20081;-49
2022/06/03 07:00:40;;;;;;;9.57;5.95;;;;;;;;;;7390005;19;20018;-46
2022/06/03 07:03:11;;;;;;;9.13;5.93;;;;;;;;;;7393049;19;20056;-48
2022/06/03 07:05:43;;;;;;;8.32;6.15;;;;;;;;;;7391748;19;20535;-52
2022/06/03 07:08:14;;;;;;;7.65;5.95;;;;;;;;;;7395852;19;20017;-45
2022/06/03 07:10:48;;;;;;;7.20;6.45;;;;;;;;;;7392405;19;20015;-49
2022/06/03 07:13:19;;;;;;;7.10;5.88;;;;;;;;;;7392209;19;20048;-50
2022/06/03 07:16:03;;;;;;;7.70;6.00;;;;;;;;;;7391925;19;20090;-49
2022/06/03 07:21:24;;;;;;;6.90;6.20;;;;;;;;;;7393069;19;20014;-49
2022/06/03 07:23:54;;;;;;;6.18;5.50;;;;;;;;;;7393835;19;20021;-46
2022/06/03 07:26:32;;;;;;;9.60;6.07;;;;;;;;;;7392209;19;20014;-52
2022/06/03 07:29:03;;;;;;;6.07;5.22;;;;;;;;;;7391870;19;20092;-48
2022/06/03 07:31:37;;;;;;;10.02;6.13;;;;;;;;;;7391304;19;20025;-48
2022/06/03 07:34:09;;;;;;;8.65;6.30;;;;;;;;;;7390631;19;20017;-48
2022/06/03 07:36:42;;;;;;;7.70;5.70;;;;;;;;;;7393734;19;20411;-47
2022/06/03 07:39:29;;;;;;;7.53;5.20;;;;;;;;;;7391312;19;20025;-48
2022/06/03 07:42:02;;;;;;;6.50;5.80;;;;;;;;;;7390507;19;20014;-46
2022/06/03 07:44:36;;;;;;;7.75;6.30;;;;;;;;;;7389536;19;20305;-46
2022/06/03 07:47:09;;;;;;;6.22;5.63;;;;;;;;;;7390502;19;20021;-46
2022/06/03 07:49:38;;;;;;;7.80;6.18;;;;;;;;;;7391513;19;20014;-46
2022/06/03 07:52:09;;;;;;;8.73;5.82;;;;;;;;;;7393924;19;20438;-46
2022/06/03 07:54:38;;;;;;;8.50;6.05;;;;;;;;;;7389248;19;20018;-46
2022/06/03 07:57:08;;;;;;;8.68;5.75;;;;;;;;;;7388840;19;20025;-47
2022/06/03 07:59:38;;;;;;;7.13;5.35;;;;;;;;;;7391333;19;20356;-46
2022/06/03 08:02:19;;;;;;;6.70;5.20;;;;;;;;;;7390417;19;20014;-48
2022/06/03 08:04:48;;;;;;;8.15;6.10;;;;;;;;;;7388802;19;20021;-46
2022/06/03 08:12:57;;;;;;;5.50;5.00;;;;;;;;;;7395252;19;20024;-50
2022/06/03 08:15:29;;;;;;;7.13;5.00;;;;;;;;;;7397417;19;20018;-48
2022/06/03 08:18:02;;;;;;;6.50;4.83;;;;;;;;;;7395745;19;20356;-47
2022/06/03 08:20:30;;;;;;;;;;;;;;;;;;7398222;19;20238;-50
2022/06/03 08:22:59;;;;;;;6.47;4.32;;;;;;;;;;7400353;19;20236;-44
2022/06/03 08:25:29;;;;;;;34.03;5.70;;;;;;;;;;7395273;19;20130;-45
2022/06/03 08:27:59;;;;;;;4.60;3.90;;;;;;;;;;7396996;19;20094;-46
2022/06/03 08:30:29;;;;;;;4.55;3.75;;;;;;;;;;7396755;19;20015;-47
2022/06/03 08:33:02;;;;;;;19.50;4.15;;;;;;;;;;7396589;19;20014;-46
2022/06/03 08:35:34;;;;;;;4.60;3.90;;;;;;;;;;7396476;19;20415;-52
2022/06/03 08:38:05;;;;;;;4.38;3.47;;;;;;;;;;7394998;19;20010;-52
2022/06/03 08:40:38;;;;;;;4.63;3.80;;;;;;;;;;7397290;19;20324;-45
2022/06/03 08:43:12;;;;;;;6.82;3.97;;;;;;;;;;7395799;19;20090;-46
2022/06/03 08:45:44;;;;;;;6.50;3.38;;;;;;;;;;7396659;19;20070;-48
2022/06/03 08:48:17;;;;;;;8.55;3.60;;;;;;;;;;7396767;19;20044;-52
2022/06/03 08:50:53;;;;;;;4.93;3.60;;;;;;;;;;7397020;19;20074;-48
2022/06/03 08:53:24;;;;;;;4.90;3.85;;;;;;;;;;7400486;19;20476;-47
2022/06/03 08:55:55;;;;;;;4.85;3.80;;;;;;;;;;7395747;19;20038;-48
2022/06/03 08:58:30;;;;;;;4.05;3.65;;;;;;;;;;7393828;19;20014;-51
2022/06/03 09:01:01;;;;;;;9.43;3.47;;;;;;;;;;7396175;19;20023;-45
2022/06/03 09:03:34;;;;;;;18.25;4.43;;;;;;;;;;7395247;19;20417;-51
2022/06/03 09:06:06;;;;;;;3.38;2.90;;;;;;;;;;7395496;19;20094;-48
2022/06/03 09:08:37;;;;;;;5.13;2.90;;;;;;;;;;7398636;19;20014;-50
2022/06/03 09:11:06;;;;;;;4.97;2.70;;;;;;;;;;7395194;19;20534;-49
2022/06/03 09:13:41;;;;;;;3.30;3.00;;;;;;;;;;7394307;19;20022;-49
2022/06/03 09:16:12;;;;;;;4.80;2.35;;;;;;;;;;7394833;19;20011;-51
2022/06/03 09:18:49;;;;;;;3.85;2.80;;;;;;;;;;7393353;19;20014;-47
2022/06/03 09:21:20;;;;;;;3.75;2.85;;;;;;;;;;7395353;19;20021;-49
2022/06/03 09:23:50;;;;;;;5.10;2.70;;;;;;;;;;7393112;19;20011;-50
2022/06/03 09:26:23;;;;;;;10.00;3.55;;;;;;;;;;7393845;19;20082;-46
2022/06/03 09:28:53;;;;;;;4.03;2.80;;;;;;;;;;7395770;19;20043;-50
2022/06/03 09:31:22;;;;;;;4.47;3.20;;;;;;;;;;7395597;19;20014;-49
2022/06/03 09:33:53;;;;;;;9.32;3.90;;;;;;;;;;7394695;19;20017;-52
2022/06/03 09:36:23;;;;;;;4.80;3.42;;;;;;;;;;7394782;19;20096;-46
2022/06/03 09:38:53;;;;;;;4.80;3.30;;;;;;;;;;7394162;19;20483;-55
2022/06/03 09:41:25;;;;;;;3.35;2.90;;;;;;;;;;7399205;19;20011;-49
2022/06/03 09:43:55;;;;;;;5.35;3.15;;;;;;;;;;7394562;19;20029;-49
2022/06/03 09:46:25;;;;;;;6.65;3.60;;;;;;;;;;7395058;19;20025;-47
2022/06/03 09:48:56;;;;;;;3.58;3.13;;;;;;;;;;7394802;19;20025;-46
2022/06/03 09:51:55;;;;;;;52.70;6.00;;;;;;;;;;7395513;19;20119;-48
2022/06/03 09:54:21;;;;;;;6.32;2.90;;;;;;;;;;7394383;19;20031;-49
2022/06/03 09:56:51;;;;;;;6.53;2.70;;;;;;;;;;7395913;19;20022;-47
2022/06/03 09:59:20;;;;;;;2.30;2.10;;;;;;;;;;7393395;19;20369;-45
2022/06/03 10:01:49;;;;;;;6.93;3.47;;;;;;;;;;7395263;19;20017;-47
2022/06/03 10:04:21;;;;;;;4.18;2.58;;;;;;;;;;7393715;19;20010;-51
2022/06/03 10:06:50;;;;;;;4.20;2.47;;;;;;;;;;7392706;19;20010;-50
2022/06/03 10:14:42;;;;;;;4.75;3.65;;;;;;;;;;7398750;19;19986;-46
2022/06/03 10:17:12;;;;;;;3.92;3.25;;;;;;;;;;7393191;19;20017;-50
2022/06/03 10:19:44;;;;;;;3.50;3.05;;;;;;;;;;7394288;19;20022;-46
2022/06/03 10:22:12;;;;;;;4.70;3.20;;;;;;;;;;7394363;19;20018;-48
2022/06/03 10:24:41;;;;;;;6.97;3.05;;;;;;;;;;7392263;19;20011;-50
2022/06/03 10:27:09;;;;;;;3.30;2.80;;;;;;;;;;7393695;19;20007;-45
2022/06/03 10:29:47;;;;;;;6.57;2.83;;;;;;;;;;7397284;19;20086;-48
2022/06/03 10:32:18;;;;;;;5.95;3.35;;;;;;;;;;7393155;19;20011;-46
2022/06/03 10:34:49;;;;;;;4.35;2.78;;;;;;;;;;7393258;19;20014;-44
2022/06/03 10:37:22;;;;;;;3.83;3.00;;;;;;;;;;7394817;19;20022;-46
2022/06/03 10:39:51;;;;;;;3.97;2.95;;;;;;;;;;7396726;19;20086;-46
2022/06/03 10:42:21;;;;;;;3.85;3.15;;;;;;;;;;7395855;19;20054;-45
2022/06/03 10:44:50;;;;;;;6.35;3.05;;;;;;;;;;7393484;19;20017;-45
2022/06/03 10:47:21;;;;;;;3.10;2.72;;;;;;;;;;7394146;19;20018;-45
2022/06/03 10:49:57;;;;;;;5.90;3.47;;;;;;;;;;7395976;19;20345;-44
2022/06/03 11:03:24;;;;;;;3.83;3.20;;;;;;;;;;7394804;19;20029;-45
2022/06/03 11:05:56;;;;;;;5.90;3.25;;;;;;;;;;7393925;19;20018;-45
2022/06/03 11:08:24;;;;;;;4.90;2.75;;;;;;;;;;7394668;19;20483;-45
2022/06/03 11:10:54;;;;;;;3.55;2.97;;;;;;;;;;7395042;19;20017;-45
2022/06/03 11:13:29;;;;;;;2.92;2.38;;;;;;;;;;7394520;19;20018;-46
2022/06/03 11:15:58;;;;;;;79.00;5.95;;;;;;;;;;7393260;19;20069;-44
2022/06/03 11:18:29;;;;;;;3.70;2.45;;;;;;;;;;7395670;19;20013;-45
2022/06/03 11:21:02;;;;;;;5.10;2.53;;;;;;;;;;7394797;19;20015;-44
2022/06/03 11:23:31;;;;;;;3.00;2.40;;;;;;;;;;7392840;19;20015;-44
2022/06/03 11:26:00;;;;;;;3.47;2.60;;;;;;;;;;7392888;19;20010;-45
2022/06/03 11:28:31;;;;;;;3.47;2.45;;;;;;;;;;7394580;19;20018;-45
2022/06/03 11:31:03;;;;;;;4.68;2.67;;;;;;;;;;7394442;19;20055;-45
2022/06/03 11:33:33;;;;;;;2.50;2.15;;;;;;;;;;7392561;19;20018;-46
2022/06/03 11:36:06;;;;;;;2.97;2.30;;;;;;;;;;7393094;19;20021;-45
2022/06/03 11:38:34;;;;;;;;;;;;;;;;;;7393661;19;20010;-44
2022/06/03 11:41:04;;;;;;;2.17;1.98;;;;;;;;;;7393937;19;19926;-45
2022/06/03 11:43:36;;;;;;;8.82;2.75;;;;;;;;;;7395402;19;20018;-45
2022/06/03 11:46:06;;;;;;;2.25;1.95;;;;;;;;;;7393881;19;20090;-44
2022/06/03 11:48:37;;;;;;;3.35;2.20;;;;;;;;;;7400130;19;20531;-44
2022/06/03 11:51:09;;;;;;;11.70;2.95;;;;;;;;;;7404212;19;20486;-43
2022/06/03 11:53:41;;;;;;;5.47;2.42;;;;;;;;;;7399541;19;20066;-44
2022/06/03 11:56:13;;;;;;;2.83;2.30;;;;;;;;;;7400877;19;20031;-44
2022/06/03 11:58:50;;;;;;;4.50;2.23;;;;;;;;;;7399068;19;20843;-43
2022/06/03 12:01:21;;;;;;;2.97;1.98;;;;;;;;;;7400394;19;20018;-43
2022/06/03 12:03:55;;;;;;;5.95;2.17;;;;;;;;;;7398556;19;20066;-44
2022/06/03 12:06:32;;;;;;;3.58;2.40;;;;;;;;;;7398183;19;20017;-44
2022/06/03 12:09:02;;;;;;;8.52;2.35;;;;;;;;;;7399618;19;20082;-44
2022/06/03 12:14:30;;;;;;;4.20;2.17;;;;;;;;;;7397923;19;20014;-45
2022/06/03 12:17:00;;;;;;;8.10;2.70;;;;;;;;;;7399734;19;20045;-45
2022/06/03 12:19:43;;;;;;;2.30;2.10;;;;;;;;;;7397650;19;20066;-44
2022/06/03 12:22:23;;;;;;;3.47;2.20;;;;;;;;;;7398873;19;20077;-44
2022/06/03 12:24:52;;;;;;;3.28;2.30;;;;;;;;;;7396794;19;20014;-47
2022/06/03 12:27:29;;;;;;;5.53;2.90;;;;;;;;;;7399447;19;20118;-45
2022/06/03 12:30:03;;;;;;;6.03;2.55;;;;;;;;;;7402822;19;20021;-44
2022/06/03 12:32:32;;;;;;;4.43;2.38;;;;;;;;;;7403651;19;20014;-46
2022/06/03 12:35:16;;;;;;;3.70;2.35;;;;;;;;;;7397615;19;20006;-45
2022/06/03 12:37:47;;;;;;;5.30;2.63;;;;;;;;;;7399108;19;20022;-44
2022/06/03 12:40:25;;;;;;;6.68;2.15;;;;;;;;;;7399998;19;20078;-44
2022/06/03 12:42:54;;;;;;;5.60;2.90;;;;;;;;;;7399300;19;20044;-43
2022/06/03 12:45:31;;;;;;;8.10;2.80;;;;;;;;;;7399031;19;20072;-45
2022/06/03 12:48:00;;;;;;;5.32;2.67;;;;;;;;;;7399494;19;20030;-45
2022/06/03 12:50:35;;;;;;;4.13;2.45;;;;;;;;;;7398164;19;20337;-44
2022/06/03 12:53:19;;;;;;;3.47;2.42;;;;;;;;;;7398134;19;20019;-47
2022/06/03 12:55:54;;;;;;;4.43;2.60;;;;;;;;;;7400850;19;20010;-43
2022/06/03 12:58:40;;;;;;;5.57;2.40;;;;;;;;;;7395146;19;20025;-45
2022/06/03 13:01:10;;;;;;;3.45;2.67;;;;;;;;;;7397324;19;20357;-45
2022/06/03 13:03:43;;;;;;;2.90;2.47;;;;;;;;;;7397912;19;20119;-44
2022/06/03 13:06:12;;;;;;;3.08;2.28;;;;;;;;;;7396993;19;20025;-48
2022/06/03 13:11:44;;;;;;;6.30;2.63;;;;;;;;;;7399409;19;20023;-45
2022/06/03 13:14:21;;;;;;;6.10;2.00;;;;;;;;;;7395168;19;20511;-44
2022/06/03 13:16:50;;;;;;;2.70;2.45;;;;;;;;;;7396155;19;20042;-43
2022/06/03 13:19:36;;;;;;;9.20;2.88;;;;;;;;;;7395824;19;20235;-44
2022/06/03 13:22:07;;;;;;;8.13;2.40;;;;;;;;;;7396355;19;20018;-44
2022/06/03 13:24:36;;;;;;;13.05;3.47;;;;;;;;;;7395274;19;20041;-44
2022/06/03 13:27:12;;;;;;;3.95;2.67;;;;;;;;;;7396592;19;20010;-43
2022/06/03 13:30:06;;;;;;;29.90;4.75;;;;;;;;;;7401386;19;20018;-43
2022/06/03 13:32:52;;;;;;;11.52;2.88;;;;;;;;;;7396143;19;20006;-46
2022/06/03 13:35:23;;;;;;;3.13;2.30;;;;;;;;;;7396927;19;20026;-45
2022/06/03 13:37:52;;;;;;;29.13;4.63;;;;;;;;;;7397387;19;20025;-43
2022/06/03 13:40:23;;;;;;;4.28;2.45;;;;;;;;;;7394420;19;20078;-47
2022/06/03 13:43:02;;;;;;;5.03;2.45;;;;;;;;;;7397248;19;20011;-44
2022/06/03 13:45:46;;;;;;;3.83;2.30;;;;;;;;;;7398891;19;20020;-45
2022/06/03 13:48:17;;;;;;;4.95;2.90;;;;;;;;;;7396276;19;20023;-44
2022/06/03 13:50:46;;;;;;;4.63;2.47;;;;;;;;;;7395757;19;20031;-45
2022/06/03 13:53:16;;;;;;;4.68;2.90;;;;;;;;;;7395374;19;20010;-45
2022/06/03 13:55:52;;;;;;;4.20;2.60;;;;;;;;;;7395220;19;20014;-47
2022/06/03 13:58:25;;;;;;;5.78;2.65;;;;;;;;;;7396215;19;20033;-45
2022/06/03 14:00:56;;;;;;;5.53;2.70;;;;;;;;;;7397468;19;20034;-44
2022/06/03 14:03:25;;;;;;;7.07;2.50;;;;;;;;;;7395902;19;20041;-44
2022/06/03 14:05:58;;;;;;;3.42;2.65;;;;;;;;;;7395232;19;20049;-44
2022/06/03 14:08:28;;;;;;;3.70;2.58;;;;;;;;;;7397083;19;20078;-46
2022/06/03 14:11:01;;;;;;;4.25;2.60;;;;;;;;;;7395582;19;20028;-45
2022/06/03 14:13:36;;;;;;;6.18;2.60;;;;;;;;;;7394969;19;20360;-46
2022/06/03 14:16:08;;;;;;;3.13;2.10;;;;;;;;;;7396317;19;20387;-45
2022/06/03 14:18:47;;;;;;;4.00;2.50;;;;;;;;;;7395029;19;20081;-47
2022/06/03 14:21:17;;;;;;;5.15;3.05;;;;;;;;;;7395263;19;20014;-45
2022/06/03 14:23:47;;;;;;;3.67;2.17;;;;;;;;;;7394923;19;20087;-45
2022/06/03 14:26:18;;;;;;;3.67;2.30;;;;;;;;;;7394508;19;20323;-45
2022/06/03 14:28:52;;;;;;;3.33;2.08;;;;;;;;;;7395390;19;20014;-46
2022/06/03 14:31:24;;;;;;;4.35;2.50;;;;;;;;;;7395402;19;20068;-47
2022/06/03 14:33:53;;;;;;;;;;;;;;;;;;7394972;19;20017;-47
2022/06/03 14:36:22;;;;;;;4.05;2.83;;;;;;;;;;7394010;19;19974;-44
2022/06/03 14:38:52;;;;;;;5.18;2.35;;;;;;;;;;7394247;19;20073;-46
2022/06/03 14:41:24;;;;;;;4.32;2.42;;;;;;;;;;7393591;19;20015;-44
2022/06/03 14:43:55;;;;;;;5.70;2.63;;;;;;;;;;7393860;19;20027;-45
2022/06/03 14:46:30;;;;;;;8.23;2.60;;;;;;;;;;7396562;19;20006;-44
2022/06/03 14:48:59;;;;;;;3.92;2.45;;;;;;;;;;7396481;19;20017;-43
2022/06/03 14:51:34;;;;;;;3.33;2.40;;;;;;;;;;7393711;19;20018;-45
2022/06/03 14:54:04;;;;;;;3.30;2.00;;;;;;;;;;7393473;19;20018;-45
2022/06/03 14:56:35;;;;;;;3.30;2.15;;;;;;;;;;7393999;19;20470;-45
2022/06/03 14:59:07;;;;;;;6.15;2.58;;;;;;;;;;7394887;19;20364;-46
2022/06/03 15:01:40;;;;;;;;;;;;;;;;;;7395607;19;20379;-45
2022/06/03 15:04:11;;;;;;;6.13;2.20;;;;;;;;;;7394223;19;19974;-47
2022/06/03 15:06:43;;;;;;;2.22;2.03;;;;;;;;;;7392303;19;20025;-45
2022/06/03 15:09:14;;;;;;;2.33;2.00;;;;;;;;;;7394594;19;20393;-46
2022/06/03 15:11:49;;;;;;;3.30;2.30;;;;;;;;;;7395405;19;20011;-44
2022/06/03 15:14:22;;;;;;;2.30;2.10;;;;;;;;;;7393028;19;20010;-47
2022/06/03 15:16:54;;;;;;;5.25;2.20;;;;;;;;;;7392440;19;20006;-45
2022/06/03 15:19:36;;;;;;;3.72;1.77;;;;;;;;;;7396573;19;20018;-45
2022/06/03 15:22:07;;;;;;;3.53;1.80;;;;;;;;;;7390801;19;20022;-44
2022/06/03 15:24:36;;;;;;;7.22;1.90;;;;;;;;;;7390995;19;20023;-44
2022/06/03 15:27:06;;;;;;;2.80;2.05;;;;;;;;;;7391429;19;20011;-45
2022/06/03 15:29:38;;;;;;;2.70;1.95;;;;;;;;;;7392069;19;20014;-45
2022/06/03 15:32:07;;;;;;;2.47;2.13;;;;;;;;;;7392928;19;20356;-45
2022/06/03 15:34:37;;;;;;;3.80;2.20;;;;;;;;;;7393472;19;20011;-45
2022/06/03 15:37:06;;;;;;;3.38;2.10;;;;;;;;;;7395825;19;20014;-45
2022/06/03 15:39:36;;;;;;;3.45;2.10;;;;;;;;;;7392013;19;20019;-46
2022/06/03 15:42:10;;;;;;;3.08;2.20;;;;;;;;;;7393093;19;20349;-46
2022/06/03 15:44:42;;;;;;;2.40;2.20;;;;;;;;;;7391061;19;20022;-44
2022/06/03 15:47:12;;;;;;;4.90;1.90;;;;;;;;;;7392093;19;20126;-44
2022/06/03 15:49:42;;;;;;;5.57;2.40;;;;;;;;;;7392268;19;20045;-45
2022/06/03 15:52:11;;;;;;;6.35;2.67;;;;;;;;;;7391842;19;20010;-45
2022/06/03 15:54:41;;;;;;;6.05;2.22;;;;;;;;;;7390870;19;20014;-46
2022/06/03 15:57:32;;;;;;;11.73;2.85;;;;;;;;;;7391467;19;20351;-44
2022/06/03 16:00:08;;;;;;;6.00;2.25;;;;;;;;;;7391163;19;20014;-44
2022/06/03 16:02:46;;;;;;;2.38;2.03;;;;;;;;;;7392116;19;20025;-43
2022/06/03 16:05:16;;;;;;;3.72;2.70;;;;;;;;;;7390126;19;20026;-43
2022/06/03 16:07:50;;;;;;;3.70;2.30;;;;;;;;;;7395907;19;20521;-43
2022/06/03 16:10:20;;;;;;;5.93;2.35;;;;;;;;;;7391008;19;20025;-44
2022/06/03 16:12:58;;;;;;;2.40;2.10;;;;;;;;;;7390494;19;20078;-43